East Port Orchard, Washington
Current Conditions -  °F | °C
As of 10:15 AM on Friday 19 Dec 2014 (Local Time) from KPWT Reporting Station
Overcast Overcast  
Wind Chill:   Ceiling: 700
Heat Index:   Visibility: 10mi
Dew Point:   Wind: 10mph
Humidity: 93%   Direction: 180°S
Pressure: 29.94"   Gusts: NA
Location:  47.5378°N, 122.589°W
Report Text: KPWT 191815Z AUTO 18009KT 10SM BKN007 OVC024 08/07 A2994 RMK AO1
Loading
Personal Weather Stations






























Interactive Weather Map New forecast layout! Learn more

10-Day Weather Forecast

Advertisements
Track Severe Weather on mobile